Latest Coastal Weather Observations for Evans Head

IDN60701

Issued at 1:42 am EST Monday 26 September 2016 (issued every 10 minutes, with the page automatically refreshed every 10 minutes)

About coastal observations | Map of coastal stations | Coastal observations for NSW | Marine services | Other Formats
Station Details ID: 058212 Name: EVANS HEAD RAAF BOMBING RANGE AWS Lat: -29.18 Lon: 153.40 Height: 62.5 m
Data from the previous 72 hours. | See also: Recent months at Evans Head
Date/Time
EST
Temp
°C
Wind Pressure Rain since
9am
mm
Weather Cloud Vis
km
Sea
Height
m
Swell
Dir  Spd
kts
Gust
kts
hPa Trend Height
m
Period
s
Dir
26/01:30am 16.6 SW 8 10 1009.9 - 0.0 - - - - - - -
26/01:00am 17.1 SW 8 10 1010.1 - 0.0 - - - - - - -
26/12:30am 16.9 SW 9 10 1010.3 - 0.0 - - - - - - -
26/12:00am 16.4 WSW 7 9 1010.5 - 0.0 - - - - - - -
 
Date/Time
EST
Temp
°C
Wind Pressure Rain since
9am
mm
Weather Cloud Vis
km
Sea
Height
m
Swell
Dir  Spd
kts
Gust
kts
hPa Trend Height
m
Period
s
Dir
25/11:30pm 17.1 SW 9 10 1010.1 - 0.0 - - - - - - -
25/11:00pm 16.9 WSW 7 8 1010.2 - 0.0 - - - - - - -
25/10:30pm 17.5 SW 8 9 1010.1 - 0.0 - - - - - - -
25/10:00pm 17.5 SW 8 9 1009.9 - 0.0 - - - - - - -
25/09:30pm 18.1 SW 7 9 1009.9 - 0.0 - - - - - - -
25/09:00pm 18.4 SSW 7 8 1009.9 - 0.0 - - - - - - -
25/08:30pm 19.8 WSW 7 13 1009.1 - 0.0 - - - - - - -
25/08:00pm 19.5 W 7 11 1008.6 - 0.0 - - - - - - -
25/07:30pm 19.3 W 6 8 1008.2 - 0.0 - - - - - - -
25/07:00pm 18.4 W 6 10 1007.9 - 0.0 - - - - - - -
25/06:30pm 18.6 W 6 8 1007.3 - 0.0 - - - - - - -
25/06:00pm 19.0 CALM 0 1 1006.7 - 0.0 - - - - - - -
25/05:30pm 19.2 SE 4 5 1006.2 - 0.0 - - - - - - -
25/05:00pm 19.8 ESE 5 9 1005.8 - 0.0 - - - - - - -
25/04:30pm 20.0 ESE 9 12 1005.1 - 0.0 - - - - - - -
25/04:00pm 22.7 SSE 6 10 1004.4 - 0.0 - - - - - - -
25/03:30pm 24.0 SSE 8 13 1004.3 - 0.0 - - - - - - -
25/03:00pm 24.2 SSE 13 19 1004.0 - 0.0 - - - - - - -
25/02:30pm 27.9 W 16 26 1003.6 - 0.0 - - - - - - -
25/02:00pm 27.2 W 15 28 1003.7 - 0.0 - - - - - - -
25/01:59pm 27.2 W 15 28 1003.7 - 0.0 - - - - - - -
25/01:30pm 26.5 WSW 8 16 1003.9 - 0.0 - - - - - - -
25/01:00pm 29.1 NW 7 12 1004.1 - 0.0 - - - - - - -
25/12:30pm 27.7 WNW 7 14 1004.5 - 0.0 - - - - - - -
25/12:00pm 27.2 NW 10 16 1005.1 - 0.0 - - - - - - -
25/11:30am 26.5 W 8 12 1005.7 - 0.0 - - - - - - -
25/11:00am 26.4 WNW 8 13 1006.1 - 0.0 - - - - - - -
25/10:30am 25.5 NNW 9 15 1006.4 - 0.0 - - - - - - -
25/10:00am 24.4 NNW 10 15 1007.0 - 0.0 - - - - - - -
25/09:30am 23.9 NNW 8 12 1007.4 - 0.0 - - - - - - -
25/09:00am 21.0 WNW 6 11 1007.9 - 0.6 - - - - - - -
25/08:30am 18.0 WNW 5 9 1008.2 - 0.6 - - - - - - -
25/08:00am 16.1 WNW 5 7 1008.4 - 0.6 - - - - - - -
25/07:30am 15.2 WNW 5 8 1008.7 - 0.4 - - - - - - -
25/07:00am 14.8 NW 5 8 1008.6 - 0.4 - - - - - - -
25/06:30am 15.6 NNW 2 4 1008.6 - 0.0 - - - - - - -
25/06:00am 15.4 NNW 4 8 1008.3 - 0.0 - - - - - - -
25/05:30am 14.9 NNW 6 8 1007.8 - 0.0 - - - - - - -
25/05:00am 15.4 NNW 5 8 1007.5 - 0.0 - - - - - - -
25/04:30am 15.2 NNW 7 10 1007.6 - 0.0 - - - - - - -
25/04:00am 14.9 NNW 7 9 1007.2 - 0.0 - - - - - - -
25/03:30am 14.6 NNW 6 11 1007.0 - 0.0 - - - - - - -
25/03:00am 14.8 N 5 6 1007.2 - 0.0 - - - - - - -
25/02:30am 15.9 WNW 6 10 1007.5 - 0.0 - - - - - - -
25/02:00am 15.5 NW 2 6 1007.6 - 0.0 - - - - - - -
25/01:30am 15.4 CALM 0 0 1008.1 - 0.0 - - - - - - -
25/01:00am 14.5 NNW 6 10 1008.4 - 0.0 - - - - - - -
25/12:30am 14.7 N 2 5 1008.6 - 0.0 - - - - - - -
25/12:00am 14.7 NNW 3 5 1008.9 - 0.0 - - - - - - -
 
Date/Time
EST
Temp
°C
Wind Pressure Rain since
9am
mm
Weather Cloud Vis
km
Sea
Height
m
Swell
Dir  Spd
kts
Gust
kts
hPa Trend Height
m
Period
s
Dir
24/11:30pm 14.8 NNW 6 9 1009.0 - 0.0 - - - - - - -
24/11:00pm 15.1 NNW 8 10 1009.2 - 0.0 - - - - - - -
24/10:30pm 16.2 N 8 13 1009.3 - 0.0 - - - - - - -
24/10:00pm 16.8 N 10 17 1009.3 - 0.0 - - - - - - -
24/09:30pm 16.7 N 10 15 1009.5 - 0.0 - - - - - - -
24/09:00pm 16.9 N 9 13 1009.4 - 0.0 - - - - - - -
24/08:30pm 17.2 N 9 13 1009.5 - 0.0 - - - - - - -
24/08:00pm 17.4 NNE 8 10 1009.7 - 0.0 - - - - - - -
24/07:30pm 17.7 NNE 7 9 1009.9 - 0.0 - - - - - - -
24/07:00pm 17.6 N 7 9 1009.7 - 0.0 - - - - - - -
24/06:30pm 17.9 NNE 6 8 1009.6 - 0.0 - - - - - - -
24/06:00pm 18.1 NNE 6 10 1009.3 - 0.0 - - - - - - -
24/05:30pm 19.0 NNE 7 10 1008.9 - 0.0 - - - - - - -
24/05:00pm 19.9 NE 8 12 1008.9 - 0.0 - - - - - - -
24/04:30pm 20.5 NE 10 13 1008.9 - 0.0 - - - - - - -
24/04:00pm 21.1 ENE 11 16 1008.6 - 0.0 - - - - - - -
24/03:30pm 22.3 NE 9 17 1008.5 - 0.0 - - - - - - -
24/03:00pm 22.1 NE 9 13 1008.7 - 0.0 - - - - - - -
24/02:30pm 23.0 NE 8 11 1008.8 - 0.0 - - - - - - -
24/02:00pm 22.6 ENE 9 13 1009.1 - 0.0 - - - - - - -
24/01:30pm 22.1 E 10 13 1009.4 - 0.0 - - - - - - -
24/01:00pm 23.7 E 9 13 1009.6 - 0.0 - - - - - - -
24/12:30pm 24.0 E 8 11 1010.0 - 0.0 - - - - - - -
24/12:00pm 23.0 E 9 11 1010.4 - 0.0 - - - - - - -
24/11:30am 20.9 ESE 6 8 1011.0 - 0.0 - - - - - - -
24/11:00am 22.8 ESE 7 11 1011.4 - 0.0 - - - - - - -
24/10:30am 23.4 ESE 8 11 1011.7 - 0.0 - - - - - - -
24/10:00am 23.0 E 5 10 1012.1 - 0.0 - - - - - - -
24/09:30am 23.6 N 5 10 1012.5 - 0.0 - - - - - - -
24/09:00am 20.8 W 3 6 1012.8 - 0.0 - - - - - - -
24/08:30am 20.1 W 4 7 1012.8 - 0.0 - - - - - - -
24/08:00am 18.9 W 4 6 1012.9 - 0.0 - - - - - - -
24/07:30am 17.4 WSW 2 4 1012.8 - 0.0 - - - - - - -
24/07:00am 15.1 WNW 2 4 1012.4 - 0.0 - - - - - - -
24/06:30am 14.5 CALM 0 0 1012.0 - 0.0 - - - - - - -
24/06:00am 13.6 CALM 0 0 1011.6 - 0.0 - - - - - - -
24/05:30am 13.7 W 1 4 1011.3 - 0.0 - - - - - - -
24/05:00am 12.8 NW 4 5 1011.0 - 0.0 - - - - - - -
24/04:30am 13.9 WNW 6 7 1010.7 - 0.0 - - - - - - -
24/04:00am 14.3 WNW 6 7 1010.4 - 0.0 - - - - - - -
24/03:30am 13.1 NNW 5 6 1010.3 - 0.0 - - - - - - -
24/03:00am 13.2 NNW 6 7 1010.4 - 0.0 - - - - - - -
24/02:30am 14.0 NNW 6 7 1010.5 - 0.0 - - - - - - -
24/02:00am 15.0 NNW 5 6 1010.7 - 0.0 - - - - - - -
24/01:30am 15.2 NNW 5 6 1010.8 - 0.0 - - - - - - -
24/01:00am 15.6 NNW 5 6 1010.9 - 0.0 - - - - - - -
24/12:30am 15.7 NNW 5 6 1010.8 - 0.0 - - - - - - -
24/12:00am 15.9 NW 4 5 1011.1 - 0.0 - - - - - - -
 
Date/Time
EST
Temp
°C
Wind Pressure Rain since
9am
mm
Weather Cloud Vis
km
Sea
Height
m
Swell
Dir  Spd
kts
Gust
kts
hPa Trend Height
m
Period
s
Dir
23/11:30pm 16.0 W 2 4 1011.1 - 0.0 - - - - - - -
23/11:00pm 16.5 NW 4 5 1011.1 - 0.0 - - - - - - -
23/10:30pm 15.4 NW 6 7 1011.1 - 0.0 - - - - - - -
23/10:00pm 15.7 NNW 6 7 1011.2 - 0.0 - - - - - - -
23/09:30pm 15.7 NNW 5 7 1011.3 - 0.0 - - - - - - -
23/09:00pm 15.9 NNW 6 7 1011.2 - 0.0 - - - - - - -
23/08:30pm 16.0 NNW 5 6 1011.2 - 0.0 - - - - - - -
23/08:00pm 16.4 NNW 5 6 1010.9 - 0.0 - - - - - - -
23/07:30pm 17.2 NNE 4 5 1010.7 - 0.0 - - - - - - -
23/07:00pm 16.8 N 4 4 1010.3 - 0.0 - - - - - - -
23/06:30pm 17.4 NE 5 6 1009.9 - 0.0 - - - - - - -
23/06:00pm 17.7 E 4 6 1009.6 - 0.0 - - - - - - -
23/05:30pm 17.9 ESE 6 8 1009.0 - 0.0 - - - - - - -
23/05:00pm 18.8 ESE 7 9 1008.7 - 0.0 - - - - - - -
23/04:30pm 19.3 E 8 10 1008.2 - 0.0 - - - - - - -
23/04:00pm 20.1 ENE 8 12 1008.1 - 0.0 - - - - - - -
23/03:30pm 20.5 ENE 9 13 1008.0 - 0.0 - - - - - - -
23/03:00pm 20.7 E 9 13 1007.9 - 0.0 - - - - - - -
23/02:30pm 20.0 E 10 14 1008.1 - 0.0 - - - - - - -
23/02:00pm 22.3 ENE 7 13 1008.2 - 0.0 - - - - - - -
23/01:30pm 23.6 E 8 11 1008.3 - 0.0 - - - - - - -
23/01:00pm 24.1 E 3 8 1008.6 - 0.0 - - - - - - -
23/12:30pm 22.8 ESE 7 9 1008.9 - 0.0 - - - - - - -
23/12:00pm 23.2 SSE 8 11 1009.4 - 0.0 - - - - - - -
23/11:30am 22.8 SE 8 11 1009.7 - 0.0 - - - - - - -
23/11:00am 22.7 SSE 8 11 1010.0 - 0.0 - - - - - - -
23/10:30am 22.2 WSW 7 12 1010.3 - 0.0 - - - - - - -
23/10:00am 21.5 W 5 10 1010.5 - 0.0 - - - - - - -
23/09:30am 20.7 W 6 9 1010.7 - 0.0 - - - - - - -
23/09:00am 19.0 WSW 7 13 1010.8 - 0.0 - - - - - - -
23/08:30am 18.1 W 7 12 1010.8 - 0.0 - - - - - - -
23/08:00am 17.3 W 7 11 1010.8 - 0.0 - - - - - - -
23/07:30am 16.4 WNW 6 10 1010.7 - 0.0 - - - - - - -
23/07:00am 14.8 WNW 6 8 1010.4 - 0.0 - - - - - - -
23/06:30am 13.3 WNW 7 9 1010.0 - 0.0 - - - - - - -
23/06:00am 12.4 WNW 8 11 1009.7 - 0.0 - - - - - - -
23/05:30am 11.9 WNW 8 11 1009.5 - 0.0 - - - - - - -
23/05:00am 12.2 WNW 8 11 1009.3 - 0.0 - - - - - - -
23/04:30am 12.3 WNW 7 10 1009.1 - 0.0 - - - - - - -
23/04:00am 12.1 WNW 6 9 1008.9 - 0.0 - - - - - - -
23/03:30am 11.8 WNW 7 10 1008.9 - 0.0 - - - - - - -
23/03:00am 12.6 WNW 7 10 1009.0 - 0.0 - - - - - - -
23/02:30am 12.4 WNW 6 9 1009.2 - 0.0 - - - - - - -
23/02:00am 13.1 W 7 9 1009.2 - 0.0 - - - - - - -

Other Formats:

Comma delimited format used in spreadsheet applications
http://www.bom.gov.au/fwo/IDN60701/IDN60701.94598.axf

JavaScript Object Notation format (JSON) in row-major order
http://www.bom.gov.au/fwo/IDN60701/IDN60701.94598.json